Terminal Aerodrome Forecast
Issued by NWS

Home | Current Version | Previous Version | Text Only | Print | Product List | Glossary On
Versions: 1 2 3 4 5 6 7 8 9 10 11 12 13 14 15 16 17 18 19
912
FTUS43 KILX 041126
TAFDEC
TAF
KDEC 041126Z 0412/0512 32009KT P6SM SKC
     FM041300 35014G24KT P6SM SKC
     FM041800 34018G26KT P6SM VCSH BKN040
     FM050100 34010KT P6SM SKC=

USA.gov is the U.S. government's official web portal to all federal, state and local government web resources and services.